sensor_id;sensor_type;location;lat;lon;timestamp;temperature;humidity
47757;SHT35;22147;52.388;13.390;2024-02-26T00:01:07;1.12;90.13
47757;SHT35;22147;52.388;13.390;2024-02-26T00:03:37;1.09;90.11
47757;SHT35;22147;52.388;13.390;2024-02-26T00:06:08;1.13;90.13
47757;SHT35;22147;52.388;13.390;2024-02-26T00:08:39;1.13;90.14
47757;SHT35;22147;52.388;13.390;2024-02-26T00:11:09;1.06;90.06
47757;SHT35;22147;52.388;13.390;2024-02-26T00:13:40;1.02;89.97
47757;SHT35;22147;52.388;13.390;2024-02-26T00:16:10;0.96;89.89
47757;SHT35;22147;52.388;13.390;2024-02-26T00:18:40;0.91;89.89
47757;SHT35;22147;52.388;13.390;2024-02-26T00:21:12;0.84;89.88
47757;SHT35;22147;52.388;13.390;2024-02-26T00:23:42;0.82;89.90
47757;SHT35;22147;52.388;13.390;2024-02-26T00:26:11;0.79;89.92
47757;SHT35;22147;52.388;13.390;2024-02-26T00:28:41;0.75;89.92
47757;SHT35;22147;52.388;13.390;2024-02-26T00:31:09;0.69;89.89
47757;SHT35;22147;52.388;13.390;2024-02-26T00:33:40;0.62;89.92
47757;SHT35;22147;52.388;13.390;2024-02-26T00:36:11;0.60;89.98
47757;SHT35;22147;52.388;13.390;2024-02-26T00:38:41;0.61;89.98
47757;SHT35;22147;52.388;13.390;2024-02-26T00:41:13;0.55;89.98
47757;SHT35;22147;52.388;13.390;2024-02-26T00:43:43;0.53;90.00
47757;SHT35;22147;52.388;13.390;2024-02-26T00:46:13;0.45;89.95
47757;SHT35;22147;52.388;13.390;2024-02-26T00:48:43;0.43;90.00
47757;SHT35;22147;52.388;13.390;2024-02-26T00:51:14;0.37;90.04
47757;SHT35;22147;52.388;13.390;2024-02-26T00:53:45;0.37;90.10
47757;SHT35;22147;52.388;13.390;2024-02-26T00:56:15;0.30;90.11
47757;SHT35;22147;52.388;13.390;2024-02-26T00:58:46;0.27;90.11
47757;SHT35;22147;52.388;13.390;2024-02-26T01:01:17;0.23;90.10
47757;SHT35;22147;52.388;13.390;2024-02-26T01:03:47;0.27;90.32
47757;SHT35;22147;52.388;13.390;2024-02-26T01:06:18;0.26;90.37
47757;SHT35;22147;52.388;13.390;2024-02-26T01:08:48;0.23;90.38
47757;SHT35;22147;52.388;13.390;2024-02-26T01:11:18;0.20;90.37
47757;SHT35;22147;52.388;13.390;2024-02-26T01:13:49;0.18;90.40
47757;SHT35;22147;52.388;13.390;2024-02-26T01:16:24;0.11;90.39
47757;SHT35;22147;52.388;13.390;2024-02-26T01:18:54;0.14;90.45
47757;SHT35;22147;52.388;13.390;2024-02-26T01:21:24;0.10;90.46
47757;SHT35;22147;52.388;13.390;2024-02-26T01:23:54;0.06;90.47
47757;SHT35;22147;52.388;13.390;2024-02-26T01:26:25;0.03;90.47
47757;SHT35;22147;52.388;13.390;2024-02-26T01:28:55;0.02;90.44
47757;SHT35;22147;52.388;13.390;2024-02-26T01:31:25;-0.01;90.46
47757;SHT35;22147;52.388;13.390;2024-02-26T01:33:55;-0.04;90.45
47757;SHT35;22147;52.388;13.390;2024-02-26T01:36:26;-0.11;90.49
47757;SHT35;22147;52.388;13.390;2024-02-26T01:38:56;-0.10;90.52
47757;SHT35;22147;52.388;13.390;2024-02-26T01:41:27;-0.12;90.55
47757;SHT35;22147;52.388;13.390;2024-02-26T01:43:57;-0.14;90.55
47757;SHT35;22147;52.388;13.390;2024-02-26T01:46:29;-0.12;90.56
47757;SHT35;22147;52.388;13.390;2024-02-26T01:49:02;-0.15;90.57
47757;SHT35;22147;52.388;13.390;2024-02-26T01:51:35;-0.15;90.60
47757;SHT35;22147;52.388;13.390;2024-02-26T01:54:08;-0.21;90.60
47757;SHT35;22147;52.388;13.390;2024-02-26T01:56:41;-0.21;90.58
47757;SHT35;22147;52.388;13.390;2024-02-26T01:59:12;-0.24;90.60
47757;SHT35;22147;52.388;13.390;2024-02-26T02:01:53;-0.29;90.56
47757;SHT35;22147;52.388;13.390;2024-02-26T02:04:25;-0.28;90.62
47757;SHT35;22147;52.388;13.390;2024-02-26T02:06:59;-0.31;90.63
47757;SHT35;22147;52.388;13.390;2024-02-26T02:09:30;-0.35;90.64
47757;SHT35;22147;52.388;13.390;2024-02-26T02:12:00;-0.36;90.66
47757;SHT35;22147;52.388;13.390;2024-02-26T02:14:30;-0.41;90.64
47757;SHT35;22147;52.388;13.390;2024-02-26T02:17:00;-0.39;90.69
47757;SHT35;22147;52.388;13.390;2024-02-26T02:19:30;-0.45;90.70
47757;SHT35;22147;52.388;13.390;2024-02-26T02:22:01;-0.46;90.73
47757;SHT35;22147;52.388;13.390;2024-02-26T02:24:31;-0.46;90.87
47757;SHT35;22147;52.388;13.390;2024-02-26T02:27:02;-0.45;90.92
47757;SHT35;22147;52.388;13.390;2024-02-26T02:29:33;-0.42;91.02
47757;SHT35;22147;52.388;13.390;2024-02-26T02:32:05;-0.42;91.11
47757;SHT35;22147;52.388;13.390;2024-02-26T02:34:36;-0.32;91.33
47757;SHT35;22147;52.388;13.390;2024-02-26T02:37:06;-0.01;91.74
47757;SHT35;22147;52.388;13.390;2024-02-26T02:39:36;0.13;92.01
47757;SHT35;22147;52.388;13.390;2024-02-26T02:42:06;0.33;92.33
47757;SHT35;22147;52.388;13.390;2024-02-26T02:44:37;0.31;92.44
47757;SHT35;22147;52.388;13.390;2024-02-26T02:47:07;0.33;92.47
47757;SHT35;22147;52.388;13.390;2024-02-26T02:49:37;0.28;92.52
47757;SHT35;22147;52.388;13.390;2024-02-26T02:52:08;0.27;92.58
47757;SHT35;22147;52.388;13.390;2024-02-26T02:54:39;0.23;92.59
47757;SHT35;22147;52.388;13.390;2024-02-26T02:57:11;0.20;92.62
47757;SHT35;22147;52.388;13.390;2024-02-26T02:59:43;0.16;92.67
47757;SHT35;22147;52.388;13.390;2024-02-26T03:02:13;0.16;92.76
47757;SHT35;22147;52.388;13.390;2024-02-26T03:04:44;0.17;92.79
47757;SHT35;22147;52.388;13.390;2024-02-26T03:07:14;0.17;92.85
47757;SHT35;22147;52.388;13.390;2024-02-26T03:09:44;0.21;92.97
47757;SHT35;22147;52.388;13.390;2024-02-26T03:12:15;0.23;93.04
47757;SHT35;22147;52.388;13.390;2024-02-26T03:14:45;0.18;93.11
47757;SHT35;22147;52.388;13.390;2024-02-26T03:17:15;0.16;93.15
47757;SHT35;22147;52.388;13.390;2024-02-26T03:19:45;0.14;93.17
47757;SHT35;22147;52.388;13.390;2024-02-26T03:22:16;0.10;93.21
47757;SHT35;22147;52.388;13.390;2024-02-26T03:24:48;0.11;93.26
47757;SHT35;22147;52.388;13.390;2024-02-26T03:27:18;0.05;93.27
47757;SHT35;22147;52.388;13.390;2024-02-26T03:29:48;-0.01;93.28
47757;SHT35;22147;52.388;13.390;2024-02-26T03:32:19;-0.03;93.26
47757;SHT35;22147;52.388;13.390;2024-02-26T03:34:49;-0.05;93.31
47757;SHT35;22147;52.388;13.390;2024-02-26T03:37:19;-0.05;93.32
47757;SHT35;22147;52.388;13.390;2024-02-26T03:39:50;-0.08;93.39
47757;SHT35;22147;52.388;13.390;2024-02-26T03:42:20;-0.11;93.40
47757;SHT35;22147;52.388;13.390;2024-02-26T03:44:50;-0.17;93.37
47757;SHT35;22147;52.388;13.390;2024-02-26T03:47:20;-0.15;93.42
47757;SHT35;22147;52.388;13.390;2024-02-26T03:49:50;-0.12;93.48
47757;SHT35;22147;52.388;13.390;2024-02-26T03:52:21;-0.17;93.55
47757;SHT35;22147;52.388;13.390;2024-02-26T03:54:51;-0.24;93.54
47757;SHT35;22147;52.388;13.390;2024-02-26T03:57:21;-0.26;93.53
47757;SHT35;22147;52.388;13.390;2024-02-26T03:59:51;-0.28;93.58
47757;SHT35;22147;52.388;13.390;2024-02-26T04:02:22;-0.29;93.57
47757;SHT35;22147;52.388;13.390;2024-02-26T04:04:53;-0.33;93.57
47757;SHT35;22147;52.388;13.390;2024-02-26T04:07:23;-0.32;93.62
47757;SHT35;22147;52.388;13.390;2024-02-26T04:09:53;-0.33;93.65
47757;SHT35;22147;52.388;13.390;2024-02-26T04:12:23;-0.33;93.67
47757;SHT35;22147;52.388;13.390;2024-02-26T04:14:54;-0.36;93.66
47757;SHT35;22147;52.388;13.390;2024-02-26T04:17:24;-0.35;93.66
47757;SHT35;22147;52.388;13.390;2024-02-26T04:19:52;-0.35;93.73
47757;SHT35;22147;52.388;13.390;2024-02-26T04:22:22;-0.35;93.77
47757;SHT35;22147;52.388;13.390;2024-02-26T04:24:50;-0.32;93.78
47757;SHT35;22147;52.388;13.390;2024-02-26T04:27:20;-0.35;93.80
47757;SHT35;22147;52.388;13.390;2024-02-26T04:29:51;-0.38;93.78
47757;SHT35;22147;52.388;13.390;2024-02-26T04:32:19;-0.42;93.80
47757;SHT35;22147;52.388;13.390;2024-02-26T04:34:47;-0.41;93.80
47757;SHT35;22147;52.388;13.390;2024-02-26T04:37:16;-0.42;93.78
47757;SHT35;22147;52.388;13.390;2024-02-26T04:39:44;-0.39;93.82
47757;SHT35;22147;52.388;13.390;2024-02-26T04:42:19;-0.41;93.82
47757;SHT35;22147;52.388;13.390;2024-02-26T04:44:50;-0.45;93.79
47757;SHT35;22147;52.388;13.390;2024-02-26T04:47:20;-0.45;93.81
47757;SHT35;22147;52.388;13.390;2024-02-26T04:49:52;-0.43;93.82
47757;SHT35;22147;52.388;13.390;2024-02-26T04:52:22;-0.43;93.80
47757;SHT35;22147;52.388;13.390;2024-02-26T04:54:53;-0.43;93.83
47757;SHT35;22147;52.388;13.390;2024-02-26T04:57:24;-0.43;93.82
47757;SHT35;22147;52.388;13.390;2024-02-26T04:59:54;-0.43;93.84
47757;SHT35;22147;52.388;13.390;2024-02-26T05:02:25;-0.43;93.84
47757;SHT35;22147;52.388;13.390;2024-02-26T05:04:56;-0.49;93.87
47757;SHT35;22147;52.388;13.390;2024-02-26T05:07:26;-0.45;93.87
47757;SHT35;22147;52.388;13.390;2024-02-26T05:09:56;-0.43;93.88
47757;SHT35;22147;52.388;13.390;2024-02-26T05:12:26;-0.43;93.92
47757;SHT35;22147;52.388;13.390;2024-02-26T05:14:57;-0.45;93.93
47757;SHT35;22147;52.388;13.390;2024-02-26T05:17:27;-0.45;93.93
47757;SHT35;22147;52.388;13.390;2024-02-26T05:19:57;-0.46;93.96
47757;SHT35;22147;52.388;13.390;2024-02-26T05:22:27;-0.46;93.93
47757;SHT35;22147;52.388;13.390;2024-02-26T05:24:58;-0.46;93.91
47757;SHT35;22147;52.388;13.390;2024-02-26T05:27:28;-0.46;93.93
47757;SHT35;22147;52.388;13.390;2024-02-26T05:29:58;-0.46;93.96
47757;SHT35;22147;52.388;13.390;2024-02-26T05:32:28;-0.43;93.91
47757;SHT35;22147;52.388;13.390;2024-02-26T05:34:59;-0.46;93.90
47757;SHT35;22147;52.388;13.390;2024-02-26T05:37:30;-0.52;93.91
47757;SHT35;22147;52.388;13.390;2024-02-26T05:40:00;-0.49;93.92
47757;SHT35;22147;52.388;13.390;2024-02-26T05:42:30;-0.52;93.91
47757;SHT35;22147;52.388;13.390;2024-02-26T05:45:01;-0.52;93.90
47757;SHT35;22147;52.388;13.390;2024-02-26T05:47:36;-0.53;93.91
47757;SHT35;22147;52.388;13.390;2024-02-26T05:50:13;-0.52;93.90
47757;SHT35;22147;52.388;13.390;2024-02-26T05:52:44;-0.53;93.88
47757;SHT35;22147;52.388;13.390;2024-02-26T05:55:14;-0.52;93.94
47757;SHT35;22147;52.388;13.390;2024-02-26T05:57:45;-0.51;93.89
47757;SHT35;22147;52.388;13.390;2024-02-26T06:00:15;-0.52;93.92
47757;SHT35;22147;52.388;13.390;2024-02-26T06:02:46;-0.49;93.95
47757;SHT35;22147;52.388;13.390;2024-02-26T06:05:16;-0.45;93.94
47757;SHT35;22147;52.388;13.390;2024-02-26T06:07:47;-0.46;93.94
47757;SHT35;22147;52.388;13.390;2024-02-26T06:10:17;-0.48;94.00
47757;SHT35;22147;52.388;13.390;2024-02-26T06:12:51;-0.45;93.99
47757;SHT35;22147;52.388;13.390;2024-02-26T06:15:21;-0.33;94.07
47757;SHT35;22147;52.388;13.390;2024-02-26T06:17:51;-0.26;94.13
47757;SHT35;22147;52.388;13.390;2024-02-26T06:20:22;-0.17;94.19
47757;SHT35;22147;52.388;13.390;2024-02-26T06:22:52;-0.08;94.26
47757;SHT35;22147;52.388;13.390;2024-02-26T06:25:22;0.02;94.31
47757;SHT35;22147;52.388;13.390;2024-02-26T06:27:53;0.14;94.34
47757;SHT35;22147;52.388;13.390;2024-02-26T06:30:23;0.34;94.43
47757;SHT35;22147;52.388;13.390;2024-02-26T06:32:53;0.45;94.50
47757;SHT35;22147;52.388;13.390;2024-02-26T06:35:24;0.60;94.52
47757;SHT35;22147;52.388;13.390;2024-02-26T06:37:54;0.71;94.58
47757;SHT35;22147;52.388;13.390;2024-02-26T06:40:24;0.88;94.65
47757;SHT35;22147;52.388;13.390;2024-02-26T06:42:52;1.06;94.74
47757;SHT35;22147;52.388;13.390;2024-02-26T06:45:22;1.26;94.80
47757;SHT35;22147;52.388;13.390;2024-02-26T06:47:51;1.29;94.77
47757;SHT35;22147;52.388;13.390;2024-02-26T06:50:22;1.34;94.79
47757;SHT35;22147;52.388;13.390;2024-02-26T06:52:52;1.42;94.76
47757;SHT35;22147;52.388;13.390;2024-02-26T06:55:22;1.54;94.78
47757;SHT35;22147;52.388;13.390;2024-02-26T06:57:52;1.54;94.76
47757;SHT35;22147;52.388;13.390;2024-02-26T07:00:23;1.63;94.71
47757;SHT35;22147;52.388;13.390;2024-02-26T07:02:53;1.72;94.71
47757;SHT35;22147;52.388;13.390;2024-02-26T07:05:23;1.74;94.63
47757;SHT35;22147;52.388;13.390;2024-02-26T07:07:54;1.79;94.64
47757;SHT35;22147;52.388;13.390;2024-02-26T07:10:24;1.86;94.61
47757;SHT35;22147;52.388;13.390;2024-02-26T07:12:54;1.98;94.59
47757;SHT35;22147;52.388;13.390;2024-02-26T07:15:24;2.08;94.48
47757;SHT35;22147;52.388;13.390;2024-02-26T07:17:55;2.13;94.42
47757;SHT35;22147;52.388;13.390;2024-02-26T07:20:25;2.20;94.35
47757;SHT35;22147;52.388;13.390;2024-02-26T07:22:54;2.33;94.24
47757;SHT35;22147;52.388;13.390;2024-02-26T07:25:22;2.40;94.13
47757;SHT35;22147;52.388;13.390;2024-02-26T07:27:54;2.54;94.09
47757;SHT35;22147;52.388;13.390;2024-02-26T07:30:22;2.64;93.95
47757;SHT35;22147;52.388;13.390;2024-02-26T07:32:50;2.77;93.78
47757;SHT35;22147;52.388;13.390;2024-02-26T07:35:19;2.85;93.59
47757;SHT35;22147;52.388;13.390;2024-02-26T07:37:50;3.01;93.37
47757;SHT35;22147;52.388;13.390;2024-02-26T07:40:21;3.02;92.99
47757;SHT35;22147;52.388;13.390;2024-02-26T07:42:51;3.07;92.70
47757;SHT35;22147;52.388;13.390;2024-02-26T07:45:22;3.19;92.46
47757;SHT35;22147;52.388;13.390;2024-02-26T07:47:52;3.46;92.32
47757;SHT35;22147;52.388;13.390;2024-02-26T07:50:22;3.64;91.63
47757;SHT35;22147;52.388;13.390;2024-02-26T07:52:53;3.74;90.86
47757;SHT35;22147;52.388;13.390;2024-02-26T07:55:23;3.91;90.25
47757;SHT35;22147;52.388;13.390;2024-02-26T07:57:54;3.97;89.60
47757;SHT35;22147;52.388;13.390;2024-02-26T08:00:24;4.07;89.17
47757;SHT35;22147;52.388;13.390;2024-02-26T08:02:54;4.14;88.81
47757;SHT35;22147;52.388;13.390;2024-02-26T08:05:24;4.16;88.41
47757;SHT35;22147;52.388;13.390;2024-02-26T08:07:55;4.32;88.30
47757;SHT35;22147;52.388;13.390;2024-02-26T08:10:27;4.38;87.87
47757;SHT35;22147;52.388;13.390;2024-02-26T08:13:02;4.48;87.63
47757;SHT35;22147;52.388;13.390;2024-02-26T08:15:36;4.57;87.55
47757;SHT35;22147;52.388;13.390;2024-02-26T08:18:09;4.74;87.45
47757;SHT35;22147;52.388;13.390;2024-02-26T08:20:40;4.98;87.16
47757;SHT35;22147;52.388;13.390;2024-02-26T08:23:10;5.21;86.50
47757;SHT35;22147;52.388;13.390;2024-02-26T08:25:40;5.59;85.54
47757;SHT35;22147;52.388;13.390;2024-02-26T08:28:11;5.73;84.44
47757;SHT35;22147;52.388;13.390;2024-02-26T08:30:44;6.00;84.03
47757;SHT35;22147;52.388;13.390;2024-02-26T08:33:14;6.14;83.12
47757;SHT35;22147;52.388;13.390;2024-02-26T08:35:45;6.25;82.74
47757;SHT35;22147;52.388;13.390;2024-02-26T08:38:15;6.32;82.13
47757;SHT35;22147;52.388;13.390;2024-02-26T08:40:46;6.40;82.00
47757;SHT35;22147;52.388;13.390;2024-02-26T08:43:16;6.67;81.76
47757;SHT35;22147;52.388;13.390;2024-02-26T08:45:46;6.92;80.59
47757;SHT35;22147;52.388;13.390;2024-02-26T08:48:17;7.23;80.28
47757;SHT35;22147;52.388;13.390;2024-02-26T08:50:47;7.59;78.75
47757;SHT35;22147;52.388;13.390;2024-02-26T08:53:17;7.71;77.59
47757;SHT35;22147;52.388;13.390;2024-02-26T08:56:00;7.86;76.79
47757;SHT35;22147;52.388;13.390;2024-02-26T08:58:31;8.17;76.62
47757;SHT35;22147;52.388;13.390;2024-02-26T09:01:01;8.38;76.20
47757;SHT35;22147;52.388;13.390;2024-02-26T09:03:32;8.48;74.83
47757;SHT35;22147;52.388;13.390;2024-02-26T09:06:03;8.45;74.13
47757;SHT35;22147;52.388;13.390;2024-02-26T09:08:33;8.26;74.54
47757;SHT35;22147;52.388;13.390;2024-02-26T09:11:06;7.92;76.06
47757;SHT35;22147;52.388;13.390;2024-02-26T09:13:36;7.85;76.61
47757;SHT35;22147;52.388;13.390;2024-02-26T09:16:07;7.92;76.64
47757;SHT35;22147;52.388;13.390;2024-02-26T09:18:37;7.76;76.68
47757;SHT35;22147;52.388;13.390;2024-02-26T09:21:08;7.93;76.73
47757;SHT35;22147;52.388;13.390;2024-02-26T09:23:38;8.22;76.34
47757;SHT35;22147;52.388;13.390;2024-02-26T09:26:08;8.44;76.32
47757;SHT35;22147;52.388;13.390;2024-02-26T09:28:39;8.57;75.19
47757;SHT35;22147;52.388;13.390;2024-02-26T09:31:09;8.95;74.16
47757;SHT35;22147;52.388;13.390;2024-02-26T09:33:39;9.27;73.01
47757;SHT35;22147;52.388;13.390;2024-02-26T09:36:10;9.47;72.39
47757;SHT35;22147;52.388;13.390;2024-02-26T09:38:44;9.65;71.35
47757;SHT35;22147;52.388;13.390;2024-02-26T09:41:30;9.85;71.56
47757;SHT35;22147;52.388;13.390;2024-02-26T09:44:04;9.85;71.41
47757;SHT35;22147;52.388;13.390;2024-02-26T09:46:34;9.98;71.16
47757;SHT35;22147;52.388;13.390;2024-02-26T09:49:08;10.08;69.71
47757;SHT35;22147;52.388;13.390;2024-02-26T09:51:39;10.05;68.63
47757;SHT35;22147;52.388;13.390;2024-02-26T09:54:13;9.91;70.02
47757;SHT35;22147;52.388;13.390;2024-02-26T09:56:49;10.09;69.89
47757;SHT35;22147;52.388;13.390;2024-02-26T09:59:39;10.20;68.58
47757;SHT35;22147;52.388;13.390;2024-02-26T10:02:14;10.28;68.65
47757;SHT35;22147;52.388;13.390;2024-02-26T10:04:47;10.40;68.11
47757;SHT35;22147;52.388;13.390;2024-02-26T10:07:22;10.42;68.42
47757;SHT35;22147;52.388;13.390;2024-02-26T10:09:53;10.40;68.56
47757;SHT35;22147;52.388;13.390;2024-02-26T10:12:24;10.66;67.62
47757;SHT35;22147;52.388;13.390;2024-02-26T10:14:57;10.63;68.11
47757;SHT35;22147;52.388;13.390;2024-02-26T10:17:28;10.73;67.94
47757;SHT35;22147;52.388;13.390;2024-02-26T10:20:19;10.98;67.28
47757;SHT35;22147;52.388;13.390;2024-02-26T10:22:52;11.21;65.48
47757;SHT35;22147;52.388;13.390;2024-02-26T10:25:22;11.46;65.03
47757;SHT35;22147;52.388;13.390;2024-02-26T10:27:53;11.66;64.58
47757;SHT35;22147;52.388;13.390;2024-02-26T10:30:23;11.86;63.20
47757;SHT35;22147;52.388;13.390;2024-02-26T10:32:56;12.00;62.05
47757;SHT35;22147;52.388;13.390;2024-02-26T10:35:27;11.90;62.13
47757;SHT35;22147;52.388;13.390;2024-02-26T10:37:59;12.15;61.77
47757;SHT35;22147;52.388;13.390;2024-02-26T10:40:29;12.49;59.94
47757;SHT35;22147;52.388;13.390;2024-02-26T10:43:00;12.39;60.56
47757;SHT35;22147;52.388;13.390;2024-02-26T10:45:32;12.29;59.93
47757;SHT35;22147;52.388;13.390;2024-02-26T10:48:13;12.28;60.76
47757;SHT35;22147;52.388;13.390;2024-02-26T10:50:45;12.34;60.47
47757;SHT35;22147;52.388;13.390;2024-02-26T10:53:20;12.65;60.03
47757;SHT35;22147;52.388;13.390;2024-02-26T10:56:05;12.92;58.10
47757;SHT35;22147;52.388;13.390;2024-02-26T10:58:37;12.94;58.05
47757;SHT35;22147;52.388;13.390;2024-02-26T11:01:11;12.80;57.92
47757;SHT35;22147;52.388;13.390;2024-02-26T11:03:43;12.63;59.01
47757;SHT35;22147;52.388;13.390;2024-02-26T11:06:15;12.69;59.27
47757;SHT35;22147;52.388;13.390;2024-02-26T11:08:49;12.73;58.81
47757;SHT35;22147;52.388;13.390;2024-02-26T11:11:25;12.86;57.46
47757;SHT35;22147;52.388;13.390;2024-02-26T11:13:58;12.72;57.58
47757;SHT35;22147;52.388;13.390;2024-02-26T11:16:30;12.93;57.96
47757;SHT35;22147;52.388;13.390;2024-02-26T11:19:02;12.93;57.71
47757;SHT35;22147;52.388;13.390;2024-02-26T11:21:33;12.94;59.03
47757;SHT35;22147;52.388;13.390;2024-02-26T11:24:15;12.93;59.26
47757;SHT35;22147;52.388;13.390;2024-02-26T11:26:57;12.87;58.44
47757;SHT35;22147;52.388;13.390;2024-02-26T11:29:44;12.84;58.45
47757;SHT35;22147;52.388;13.390;2024-02-26T11:32:17;12.96;58.67
47757;SHT35;22147;52.388;13.390;2024-02-26T11:34:48;12.72;57.61
47757;SHT35;22147;52.388;13.390;2024-02-26T11:37:20;12.73;56.83
47757;SHT35;22147;52.388;13.390;2024-02-26T11:39:52;12.76;56.97
47757;SHT35;22147;52.388;13.390;2024-02-26T11:42:24;12.87;56.05
47757;SHT35;22147;52.388;13.390;2024-02-26T11:44:56;12.52;58.20
47757;SHT35;22147;52.388;13.390;2024-02-26T11:47:34;12.38;58.16
47757;SHT35;22147;52.388;13.390;2024-02-26T11:50:41;12.49;58.75
47757;SHT35;22147;52.388;13.390;2024-02-26T11:53:46;12.65;58.07
47757;SHT35;22147;52.388;13.390;2024-02-26T12:01:54;12.68;57.40
47757;SHT35;22147;52.388;13.390;2024-02-26T12:04:30;12.72;57.26
47757;SHT35;22147;52.388;13.390;2024-02-26T12:07:03;12.68;56.68
47757;SHT35;22147;52.388;13.390;2024-02-26T12:09:41;12.71;55.47
47757;SHT35;22147;52.388;13.390;2024-02-26T12:12:18;12.56;56.44
47757;SHT35;22147;52.388;13.390;2024-02-26T12:14:56;12.56;55.65
47757;SHT35;22147;52.388;13.390;2024-02-26T12:17:27;12.45;56.61
47757;SHT35;22147;52.388;13.390;2024-02-26T12:20:11;12.59;56.05
47757;SHT35;22147;52.388;13.390;2024-02-26T12:22:49;12.65;56.52
47757;SHT35;22147;52.388;13.390;2024-02-26T12:25:29;12.65;56.28
47757;SHT35;22147;52.388;13.390;2024-02-26T12:28:00;12.51;57.88
47757;SHT35;22147;52.388;13.390;2024-02-26T12:30:31;12.53;57.46
47757;SHT35;22147;52.388;13.390;2024-02-26T12:33:03;12.63;56.46
47757;SHT35;22147;52.388;13.390;2024-02-26T12:35:35;12.58;55.94
47757;SHT35;22147;52.388;13.390;2024-02-26T12:38:05;12.69;55.48
47757;SHT35;22147;52.388;13.390;2024-02-26T12:40:35;12.77;55.14
47757;SHT35;22147;52.388;13.390;2024-02-26T12:43:07;12.79;55.40
47757;SHT35;22147;52.388;13.390;2024-02-26T12:45:43;12.89;54.65
47757;SHT35;22147;52.388;13.390;2024-02-26T12:48:17;12.68;53.85
47757;SHT35;22147;52.388;13.390;2024-02-26T12:50:49;12.76;53.65
47757;SHT35;22147;52.388;13.390;2024-02-26T12:53:19;12.76;53.97
47757;SHT35;22147;52.388;13.390;2024-02-26T12:55:50;12.84;53.81
47757;SHT35;22147;52.388;13.390;2024-02-26T12:58:23;12.92;53.84
47757;SHT35;22147;52.388;13.390;2024-02-26T13:00:56;13.01;52.47
47757;SHT35;22147;52.388;13.390;2024-02-26T13:03:28;13.11;52.16
47757;SHT35;22147;52.388;13.390;2024-02-26T13:05:59;13.06;51.96
47757;SHT35;22147;52.388;13.390;2024-02-26T13:08:28;12.93;51.35
47757;SHT35;22147;52.388;13.390;2024-02-26T13:11:01;12.75;51.95
47757;SHT35;22147;52.388;13.390;2024-02-26T13:13:32;12.71;52.27
47757;SHT35;22147;52.388;13.390;2024-02-26T13:16:10;12.80;51.80
47757;SHT35;22147;52.388;13.390;2024-02-26T13:18:44;12.84;52.52
47757;SHT35;22147;52.388;13.390;2024-02-26T13:21:18;12.86;51.31
47757;SHT35;22147;52.388;13.390;2024-02-26T13:23:52;12.89;50.91
47757;SHT35;22147;52.388;13.390;2024-02-26T13:26:23;12.76;51.31
47757;SHT35;22147;52.388;13.390;2024-02-26T13:29:02;12.62;50.20
47757;SHT35;22147;52.388;13.390;2024-02-26T13:31:40;12.49;51.86
47757;SHT35;22147;52.388;13.390;2024-02-26T13:34:29;12.56;51.72
47757;SHT35;22147;52.388;13.390;2024-02-26T13:36:58;12.58;51.81
47757;SHT35;22147;52.388;13.390;2024-02-26T13:39:28;12.61;51.96
47757;SHT35;22147;52.388;13.390;2024-02-26T13:41:58;12.73;52.18
47757;SHT35;22147;52.388;13.390;2024-02-26T13:44:28;12.56;52.61
47757;SHT35;22147;52.388;13.390;2024-02-26T13:46:58;12.58;52.26
47757;SHT35;22147;52.388;13.390;2024-02-26T13:49:29;12.46;51.81
47757;SHT35;22147;52.388;13.390;2024-02-26T13:51:59;12.28;51.92
47757;SHT35;22147;52.388;13.390;2024-02-26T13:54:29;12.17;53.21
47757;SHT35;22147;52.388;13.390;2024-02-26T13:56:59;12.22;53.50
47757;SHT35;22147;52.388;13.390;2024-02-26T13:59:33;12.20;53.05
47757;SHT35;22147;52.388;13.390;2024-02-26T14:02:02;12.17;52.94
47757;SHT35;22147;52.388;13.390;2024-02-26T14:04:32;12.11;53.53
47757;SHT35;22147;52.388;13.390;2024-02-26T14:07:02;11.97;54.04
47757;SHT35;22147;52.388;13.390;2024-02-26T14:09:33;11.87;54.85
47757;SHT35;22147;52.388;13.390;2024-02-26T14:12:18;11.91;55.21
47757;SHT35;22147;52.388;13.390;2024-02-26T14:14:53;12.11;54.01
47757;SHT35;22147;52.388;13.390;2024-02-26T14:17:25;12.10;54.76
47757;SHT35;22147;52.388;13.390;2024-02-26T14:19:55;12.07;54.68
47757;SHT35;22147;52.388;13.390;2024-02-26T14:22:23;12.01;56.03
47757;SHT35;22147;52.388;13.390;2024-02-26T14:24:53;12.01;55.61
47757;SHT35;22147;52.388;13.390;2024-02-26T14:27:23;12.04;56.12
47757;SHT35;22147;52.388;13.390;2024-02-26T14:29:53;11.95;56.28
47757;SHT35;22147;52.388;13.390;2024-02-26T14:32:25;12.03;56.67
47757;SHT35;22147;52.388;13.390;2024-02-26T14:34:56;11.84;56.64
47757;SHT35;22147;52.388;13.390;2024-02-26T14:37:26;11.87;56.85
47757;SHT35;22147;52.388;13.390;2024-02-26T14:39:56;11.73;57.93
47757;SHT35;22147;52.388;13.390;2024-02-26T14:42:26;11.70;58.48
47757;SHT35;22147;52.388;13.390;2024-02-26T14:44:56;11.62;59.19
47757;SHT35;22147;52.388;13.390;2024-02-26T14:47:26;11.62;58.97
47757;SHT35;22147;52.388;13.390;2024-02-26T14:49:56;11.53;59.59
47757;SHT35;22147;52.388;13.390;2024-02-26T14:52:26;11.50;59.85
47757;SHT35;22147;52.388;13.390;2024-02-26T14:54:56;11.45;60.22
47757;SHT35;22147;52.388;13.390;2024-02-26T14:57:27;11.40;60.90
47757;SHT35;22147;52.388;13.390;2024-02-26T14:59:57;11.31;61.59
47757;SHT35;22147;52.388;13.390;2024-02-26T15:02:27;11.31;61.08
47757;SHT35;22147;52.388;13.390;2024-02-26T15:04:56;11.22;61.43
47757;SHT35;22147;52.388;13.390;2024-02-26T15:07:26;11.26;61.58
47757;SHT35;22147;52.388;13.390;2024-02-26T15:09:56;11.24;62.52
47757;SHT35;22147;52.388;13.390;2024-02-26T15:12:29;11.18;62.68
47757;SHT35;22147;52.388;13.390;2024-02-26T15:14:59;11.12;63.19
47757;SHT35;22147;52.388;13.390;2024-02-26T15:17:30;11.14;62.70
47757;SHT35;22147;52.388;13.390;2024-02-26T15:20:03;11.10;62.87
47757;SHT35;22147;52.388;13.390;2024-02-26T15:22:37;10.98;63.79
47757;SHT35;22147;52.388;13.390;2024-02-26T15:25:07;10.90;63.98
47757;SHT35;22147;52.388;13.390;2024-02-26T15:27:37;10.80;63.96
47757;SHT35;22147;52.388;13.390;2024-02-26T15:30:08;10.76;64.88
47757;SHT35;22147;52.388;13.390;2024-02-26T15:32:38;10.70;64.75
47757;SHT35;22147;52.388;13.390;2024-02-26T15:35:10;10.73;64.86
47757;SHT35;22147;52.388;13.390;2024-02-26T15:37:40;10.81;64.30
47757;SHT35;22147;52.388;13.390;2024-02-26T15:40:11;10.78;64.80
47757;SHT35;22147;52.388;13.390;2024-02-26T15:42:42;10.76;64.69
47757;SHT35;22147;52.388;13.390;2024-02-26T15:45:12;10.83;64.19
47757;SHT35;22147;52.388;13.390;2024-02-26T15:47:43;10.76;64.49
47757;SHT35;22147;52.388;13.390;2024-02-26T15:50:13;10.67;65.47
47757;SHT35;22147;52.388;13.390;2024-02-26T15:52:43;10.61;65.44
47757;SHT35;22147;52.388;13.390;2024-02-26T15:55:14;10.55;65.76